createdAt,value
2018-10-06T00:00:32.090Z,15.60
2018-10-06T00:02:36.649Z,15.60
2018-10-06T00:04:40.364Z,15.60
2018-10-06T00:06:44.136Z,15.40
2018-10-06T00:08:47.943Z,15.20
2018-10-06T00:10:51.653Z,15.00
2018-10-06T00:12:55.447Z,14.80
2018-10-06T00:14:59.352Z,14.50
2018-10-06T00:17:03.121Z,14.40
2018-10-06T00:19:06.970Z,14.20
2018-10-06T00:21:10.739Z,13.90
2018-10-06T00:23:14.619Z,13.90
2018-10-06T00:25:18.379Z,14.10
2018-10-06T00:27:22.154Z,14.50
2018-10-06T00:29:26.010Z,14.80
2018-10-06T00:31:29.756Z,15.00
2018-10-06T00:33:33.641Z,15.00
2018-10-06T00:35:37.386Z,14.80
2018-10-06T00:37:41.635Z,14.70
2018-10-06T00:39:45.487Z,14.40
2018-10-06T00:41:49.268Z,14.20
2018-10-06T00:43:53.026Z,14.00
2018-10-06T00:45:56.783Z,13.90
2018-10-06T00:48:00.609Z,13.70
2018-10-06T00:50:04.545Z,13.50
2018-10-06T00:52:08.526Z,13.40
2018-10-06T00:54:12.306Z,13.20
2018-10-06T00:56:16.069Z,13.40
2018-10-06T00:58:19.842Z,13.80
2018-10-06T01:00:23.594Z,14.20
2018-10-06T01:02:27.302Z,14.50
2018-10-06T01:04:31.045Z,14.50
2018-10-06T01:06:34.798Z,14.40
2018-10-06T01:08:38.548Z,14.20
2018-10-06T01:10:42.289Z,14.00
2018-10-06T01:12:46.094Z,13.80
2018-10-06T01:14:49.858Z,13.60
2018-10-06T01:16:53.657Z,13.40
2018-10-06T01:18:57.423Z,13.20
2018-10-06T01:21:01.174Z,13.00
2018-10-06T01:23:04.987Z,12.80
2018-10-06T01:25:08.735Z,12.70
2018-10-06T01:27:12.487Z,12.70
2018-10-06T01:29:16.209Z,12.90
2018-10-06T01:31:20.136Z,13.30
2018-10-06T01:33:23.899Z,13.70
2018-10-06T01:35:27.670Z,13.90
2018-10-06T01:37:31.591Z,13.90
2018-10-06T01:39:35.409Z,13.70
2018-10-06T01:41:39.190Z,13.50
2018-10-06T01:43:42.987Z,13.40
2018-10-06T01:45:47.157Z,13.10
2018-10-06T01:47:50.971Z,13.00
2018-10-06T01:49:54.766Z,12.80
2018-10-06T01:51:58.542Z,12.70
2018-10-06T01:54:02.295Z,12.50
2018-10-06T01:56:06.097Z,12.30
2018-10-06T01:58:09.837Z,12.20
2018-10-06T02:00:13.581Z,12.00
2018-10-06T02:05:24.370Z,12.40
2018-10-06T02:07:28.134Z,13.10
2018-10-06T02:09:31.994Z,13.30
2018-10-06T02:11:35.990Z,13.30
2018-10-06T02:13:39.744Z,13.20
2018-10-06T02:15:43.519Z,13.10
2018-10-06T02:17:47.240Z,12.90
2018-10-06T02:19:50.995Z,12.80
2018-10-06T02:21:54.889Z,12.60
2018-10-06T02:23:58.628Z,12.40
2018-10-06T02:26:02.459Z,12.30
2018-10-06T02:28:06.638Z,12.10
2018-10-06T02:30:10.433Z,12.00
2018-10-06T02:32:14.234Z,11.90
2018-10-06T02:34:18.002Z,11.70
2018-10-06T02:36:21.841Z,11.80
2018-10-06T02:38:25.585Z,12.10
2018-10-06T02:40:29.364Z,12.50
2018-10-06T02:42:33.160Z,12.90
2018-10-06T02:44:36.935Z,13.10
2018-10-06T02:46:40.775Z,13.10
2018-10-06T02:48:44.527Z,13.00
2018-10-06T02:50:48.631Z,12.80
2018-10-06T02:52:52.436Z,12.70
2018-10-06T02:54:56.183Z,12.50
2018-10-06T02:56:59.948Z,12.30
2018-10-06T02:59:03.730Z,12.10
2018-10-06T03:01:09.007Z,12.00
2018-10-06T03:03:12.777Z,11.80
2018-10-06T03:05:16.613Z,11.70
2018-10-06T03:07:20.361Z,11.60
2018-10-06T03:09:24.142Z,11.40
2018-10-06T03:11:28.072Z,11.40
2018-10-06T03:13:31.833Z,11.60
2018-10-06T03:15:35.604Z,12.00
2018-10-06T03:17:39.361Z,12.40
2018-10-06T03:19:43.099Z,12.70
2018-10-06T03:21:46.826Z,12.80
2018-10-06T03:23:50.574Z,12.70
2018-10-06T03:25:54.326Z,12.60
2018-10-06T03:27:58.189Z,12.40
2018-10-06T03:30:01.974Z,12.30
2018-10-06T03:32:05.739Z,12.10
2018-10-06T03:34:09.652Z,11.90
2018-10-06T03:36:13.480Z,11.80
2018-10-06T03:38:17.209Z,11.70
2018-10-06T03:40:20.971Z,11.50
2018-10-06T03:42:24.732Z,11.40
2018-10-06T03:44:28.488Z,11.30
2018-10-06T03:46:32.220Z,11.20
2018-10-06T03:48:35.971Z,11.20
2018-10-06T03:50:39.765Z,11.50
2018-10-06T03:52:43.613Z,12.00
2018-10-06T03:54:47.369Z,12.40
2018-10-06T03:56:51.083Z,12.60
2018-10-06T03:58:54.901Z,12.70
2018-10-06T04:00:58.658Z,12.60
2018-10-06T04:03:02.404Z,12.50
2018-10-06T04:05:06.264Z,12.40
2018-10-06T04:07:10.041Z,12.30
2018-10-06T04:09:13.791Z,12.20
2018-10-06T04:11:17.593Z,12.10
2018-10-06T04:13:21.325Z,11.90
2018-10-06T04:15:25.282Z,11.80
2018-10-06T04:17:29.052Z,11.70
2018-10-06T04:19:32.814Z,11.60
2018-10-06T04:21:41.278Z,11.50
2018-10-06T04:23:45.049Z,11.40
2018-10-06T04:25:48.751Z,11.30
2018-10-06T04:27:52.518Z,11.60
2018-10-06T04:29:56.255Z,12.00
2018-10-06T04:32:00.113Z,12.50
2018-10-06T04:34:03.850Z,12.70
2018-10-06T04:36:07.809Z,12.80
2018-10-06T04:38:11.578Z,12.80
2018-10-06T04:40:15.356Z,12.70
2018-10-06T04:42:19.099Z,12.50
2018-10-06T04:44:23.047Z,12.40
2018-10-06T04:46:26.783Z,12.20
2018-10-06T04:48:30.521Z,12.10
2018-10-06T04:50:34.304Z,12.00
2018-10-06T04:52:38.037Z,11.80
2018-10-06T04:54:41.938Z,11.70
2018-10-06T04:56:45.795Z,11.60
2018-10-06T04:58:49.669Z,11.50
2018-10-06T05:00:53.601Z,11.40
2018-10-06T05:02:57.388Z,11.50
2018-10-06T05:05:01.179Z,11.90
2018-10-06T05:07:04.931Z,12.30
2018-10-06T05:09:09.097Z,12.70
2018-10-06T05:11:13.077Z,12.80
2018-10-06T05:13:16.837Z,12.80
2018-10-06T05:15:20.696Z,12.70
2018-10-06T05:17:24.415Z,12.60
2018-10-06T05:19:28.319Z,12.50
2018-10-06T05:21:32.043Z,12.30
2018-10-06T05:23:36.098Z,12.20
2018-10-06T05:25:39.833Z,12.00
2018-10-06T05:27:43.799Z,11.90
2018-10-06T05:29:47.638Z,11.70
2018-10-06T05:31:51.444Z,11.60
2018-10-06T05:33:55.368Z,11.50
2018-10-06T05:35:59.097Z,11.40
2018-10-06T05:38:02.940Z,11.30
2018-10-06T05:40:06.937Z,11.60
2018-10-06T05:42:10.666Z,12.00
2018-10-06T05:44:14.469Z,12.40
2018-10-06T05:46:18.425Z,12.70
2018-10-06T05:48:22.636Z,12.80
2018-10-06T05:50:27.564Z,12.80
2018-10-06T05:52:31.304Z,12.70
2018-10-06T05:54:35.060Z,12.60
2018-10-06T05:56:38.881Z,12.40
2018-10-06T05:58:42.621Z,12.30
2018-10-06T06:00:46.604Z,12.10
2018-10-06T06:02:50.408Z,12.00
2018-10-06T06:04:54.287Z,11.80
2018-10-06T06:06:58.060Z,11.70
2018-10-06T06:09:01.827Z,11.60
2018-10-06T06:11:05.696Z,11.50
2018-10-06T06:13:09.402Z,11.40
2018-10-06T06:15:13.218Z,11.30
2018-10-06T06:17:16.979Z,11.50
2018-10-06T06:19:20.660Z,11.90
2018-10-06T06:21:24.402Z,12.30
2018-10-06T06:23:28.339Z,12.80
2018-10-06T06:25:32.109Z,12.90
2018-10-06T06:27:35.888Z,13.00
2018-10-06T06:29:39.667Z,12.90
2018-10-06T06:31:43.727Z,12.80
2018-10-06T06:33:47.515Z,12.70
2018-10-06T06:35:51.276Z,12.60
2018-10-06T06:37:55.328Z,12.50
2018-10-06T06:39:59.126Z,12.30
2018-10-06T06:42:02.958Z,12.20
2018-10-06T06:44:06.963Z,12.10
2018-10-06T06:46:10.768Z,12.00
2018-10-06T06:48:14.544Z,11.90
2018-10-06T06:50:18.281Z,11.90
2018-10-06T06:52:22.115Z,12.00
2018-10-06T06:54:26.162Z,12.30
2018-10-06T06:56:30.045Z,12.90
2018-10-06T06:58:33.838Z,13.40
2018-10-06T07:00:37.635Z,13.90
2018-10-06T07:02:42.226Z,14.30
2018-10-06T07:04:46.244Z,14.70
2018-10-06T07:06:50.147Z,15.50
2018-10-06T07:08:54.104Z,16.40
2018-10-06T07:10:57.889Z,17.10
2018-10-06T07:13:01.734Z,17.50
2018-10-06T07:15:05.633Z,17.70
2018-10-06T07:17:09.411Z,18.00
2018-10-06T07:19:13.407Z,18.20
2018-10-06T07:21:17.144Z,18.10
2018-10-06T07:23:21.190Z,18.40
2018-10-06T07:25:25.213Z,18.60
2018-10-06T07:27:29.043Z,19.00
2018-10-06T07:29:32.812Z,19.90
2018-10-06T07:31:36.573Z,20.80
2018-10-06T07:33:40.357Z,21.30
2018-10-06T07:35:44.063Z,21.50
2018-10-06T07:37:47.806Z,21.70
2018-10-06T07:39:51.580Z,21.90
2018-10-06T07:41:55.504Z,21.80
2018-10-06T07:43:59.267Z,22.20
2018-10-06T07:46:03.197Z,22.30
2018-10-06T07:48:07.097Z,22.10
2018-10-06T07:50:11.148Z,21.80
2018-10-06T07:52:14.967Z,21.90
2018-10-06T07:54:18.996Z,21.80
2018-10-06T07:56:22.866Z,22.20
2018-10-06T07:58:26.669Z,22.40
2018-10-06T08:00:30.452Z,23.20
2018-10-06T08:02:34.183Z,24.00
2018-10-06T08:04:37.948Z,23.90
2018-10-06T08:06:41.737Z,23.60
2018-10-06T08:08:45.530Z,23.30
2018-10-06T08:10:49.358Z,23.40
2018-10-06T08:12:53.185Z,23.00
2018-10-06T08:14:56.943Z,22.60
2018-10-06T08:17:00.712Z,22.20
2018-10-06T08:19:04.476Z,21.90
2018-10-06T08:21:08.287Z,21.70
2018-10-06T08:23:12.159Z,21.50
2018-10-06T08:25:16.195Z,20.70
2018-10-06T08:27:20.347Z,20.50
2018-10-06T08:29:24.414Z,20.50
2018-10-06T08:31:28.423Z,20.30
2018-10-06T08:33:32.432Z,20.20
2018-10-06T08:35:36.544Z,19.60
2018-10-06T08:37:40.594Z,19.30
2018-10-06T08:39:44.635Z,19.30
2018-10-06T08:41:48.734Z,19.40
2018-10-06T08:43:52.929Z,19.10
2018-10-06T08:45:56.857Z,19.20
2018-10-06T08:48:01.027Z,19.30
2018-10-06T08:50:05.199Z,19.90
2018-10-06T08:52:09.186Z,20.40
2018-10-06T08:54:13.354Z,20.70
2018-10-06T08:56:17.469Z,21.00
2018-10-06T08:58:21.370Z,20.80
2018-10-06T09:00:25.396Z,20.60
2018-10-06T09:02:29.528Z,20.60
2018-10-06T09:04:33.594Z,20.40
2018-10-06T09:06:37.627Z,20.20
2018-10-06T09:08:41.779Z,20.50
2018-10-06T09:10:45.854Z,20.20
2018-10-06T09:12:50.763Z,20.10
2018-10-06T09:14:54.773Z,20.20
2018-10-06T09:16:58.786Z,20.60
2018-10-06T09:19:02.970Z,21.40
2018-10-06T09:21:06.978Z,22.00
2018-10-06T09:23:12.110Z,22.10
2018-10-06T09:25:16.111Z,22.20
2018-10-06T09:27:19.986Z,22.20
2018-10-06T09:29:24.009Z,22.30
2018-10-06T09:31:28.222Z,22.30
2018-10-06T09:33:32.453Z,22.20
2018-10-06T09:35:36.604Z,22.20
2018-10-06T09:37:40.620Z,22.30
2018-10-06T09:39:44.639Z,22.30
2018-10-06T09:41:48.641Z,22.10
2018-10-06T09:43:52.733Z,22.70
2018-10-06T09:45:56.684Z,23.30
2018-10-06T09:48:00.704Z,23.80
2018-10-06T09:50:04.813Z,24.10
2018-10-06T09:52:08.823Z,23.60
2018-10-06T09:54:12.792Z,23.50
2018-10-06T09:56:17.740Z,23.20
2018-10-06T09:58:21.844Z,22.90
2018-10-06T10:01:34.102Z,22.60
2018-10-06T10:03:43.352Z,22.90
2018-10-06T10:05:49.370Z,22.90
2018-10-06T10:07:53.356Z,22.90
2018-10-06T10:09:57.457Z,23.70
2018-10-06T10:12:01.237Z,24.20
2018-10-06T10:14:05.434Z,24.50
2018-10-06T10:16:09.501Z,24.60
2018-10-06T10:18:13.591Z,24.10
2018-10-06T10:20:17.284Z,23.90
2018-10-06T10:24:24.635Z,23.20
2018-10-06T10:26:28.443Z,21.20
2018-10-06T10:28:32.292Z,19.60
2018-10-06T10:30:36.526Z,19.30
2018-10-06T10:32:40.272Z,19.10
2018-10-06T10:34:44.123Z,19.10
2018-10-06T10:36:47.904Z,19.00
2018-10-06T10:38:51.986Z,19.00
2018-10-06T10:40:55.776Z,19.00
2018-10-06T10:42:59.540Z,19.00
2018-10-06T10:45:03.398Z,18.90
2018-10-06T10:47:07.356Z,18.90
2018-10-06T10:49:11.151Z,19.30
2018-10-06T10:51:14.933Z,19.40
2018-10-06T10:53:19.542Z,19.50
2018-10-06T10:55:23.328Z,19.50
2018-10-06T10:57:27.068Z,19.70
2018-10-06T10:59:30.834Z,20.00
2018-10-06T11:01:34.645Z,19.90
2018-10-06T11:03:38.436Z,20.00
2018-10-06T11:05:42.216Z,20.20
2018-10-06T11:07:46.183Z,20.20
2018-10-06T11:09:50.127Z,20.10
2018-10-06T11:11:54.470Z,19.80
2018-10-06T11:13:58.709Z,19.90
2018-10-06T11:16:02.529Z,19.90
2018-10-06T11:18:06.750Z,19.80
2018-10-06T11:20:10.772Z,19.90
2018-10-06T11:22:15.373Z,20.00
2018-10-06T11:24:19.198Z,19.90
2018-10-06T11:26:23.363Z,19.90
2018-10-06T11:28:27.273Z,19.70
2018-10-06T11:30:31.359Z,19.90
2018-10-06T11:32:35.336Z,20.00
2018-10-06T11:34:39.119Z,19.90
2018-10-06T11:36:43.107Z,20.00
2018-10-06T11:38:47.206Z,19.90
2018-10-06T11:40:51.018Z,19.80
2018-10-06T11:42:54.899Z,19.80
2018-10-06T11:44:58.806Z,19.90
2018-10-06T11:47:02.673Z,19.80
2018-10-06T11:49:06.812Z,20.10
2018-10-06T11:51:10.662Z,20.30
2018-10-06T11:53:14.815Z,20.40
2018-10-06T11:55:18.624Z,20.50
2018-10-06T11:57:22.746Z,20.10
2018-10-06T11:59:26.579Z,19.90
2018-10-06T12:01:30.646Z,20.20
2018-10-06T12:03:34.643Z,20.10
2018-10-06T12:05:38.552Z,20.10
2018-10-06T12:07:42.413Z,20.30
2018-10-06T12:09:46.196Z,20.30
2018-10-06T12:11:49.996Z,19.90
2018-10-06T12:13:54.901Z,19.90
2018-10-06T12:15:58.695Z,19.90
2018-10-06T12:18:02.458Z,20.20
2018-10-06T12:20:06.433Z,20.20
2018-10-06T12:22:10.328Z,20.30
2018-10-06T12:24:14.266Z,20.30
2018-10-06T12:26:18.163Z,20.00
2018-10-06T12:28:22.078Z,19.90
2018-10-06T12:30:25.968Z,19.90
2018-10-06T12:32:29.703Z,20.40
2018-10-06T12:34:33.607Z,20.20
2018-10-06T13:00:18.082Z,19.60
2018-10-06T13:02:22.065Z,19.60
2018-10-06T13:04:25.817Z,19.80
2018-10-06T13:06:30.350Z,20.00
2018-10-06T13:08:35.648Z,20.00
2018-10-06T13:10:42.030Z,20.20
2018-10-06T13:12:45.904Z,20.30
2018-10-06T13:14:49.760Z,20.20
2018-10-06T13:16:53.595Z,20.20
2018-10-06T13:18:57.397Z,20.20
2018-10-06T13:21:01.196Z,20.30
2018-10-06T13:23:04.986Z,20.40
2018-10-06T13:25:08.809Z,20.60
2018-10-06T13:27:12.571Z,20.80
2018-10-06T13:29:16.398Z,20.70
2018-10-06T13:31:20.276Z,20.60
2018-10-06T13:33:24.147Z,20.90
2018-10-06T13:35:27.929Z,20.70
2018-10-06T13:37:31.727Z,20.70
2018-10-06T13:39:35.640Z,20.50
2018-10-06T13:41:39.431Z,20.30
2018-10-06T13:43:43.214Z,20.50
2018-10-06T13:45:47.057Z,20.70
2018-10-06T13:47:50.824Z,20.30
2018-10-06T13:49:54.862Z,20.30
2018-10-06T13:51:58.748Z,20.50
2018-10-06T13:54:02.745Z,20.60
2018-10-06T13:56:06.789Z,20.40
2018-10-06T13:58:10.859Z,20.30
2018-10-06T14:00:14.708Z,20.60
2018-10-06T14:02:19.748Z,20.70
2018-10-06T14:04:23.618Z,20.30
2018-10-06T14:06:27.433Z,20.20
2018-10-06T14:08:31.184Z,20.20
2018-10-06T14:10:35.334Z,20.10
2018-10-06T14:12:39.151Z,20.10
2018-10-06T14:14:42.881Z,20.10
2018-10-06T14:16:47.827Z,20.00
2018-10-06T14:18:51.919Z,20.10
2018-10-06T14:20:55.723Z,20.20
2018-10-06T14:22:59.712Z,20.00
2018-10-06T14:25:03.536Z,19.90
2018-10-06T14:27:07.348Z,19.90
2018-10-06T14:29:11.111Z,19.90
2018-10-06T14:31:14.870Z,20.30
2018-10-06T14:33:18.911Z,20.40
2018-10-06T14:35:22.760Z,20.40
2018-10-06T14:37:26.584Z,20.10
2018-10-06T14:39:30.428Z,20.20
2018-10-06T14:41:34.580Z,20.10
2018-10-06T14:43:38.719Z,19.80
2018-10-06T14:45:42.540Z,19.70
2018-10-06T14:47:46.522Z,19.80
2018-10-06T14:49:50.397Z,20.00
2018-10-06T14:51:54.579Z,19.70
2018-10-06T14:53:58.648Z,19.60
2018-10-06T14:56:02.426Z,19.50
2018-10-06T14:58:06.592Z,19.50
2018-10-06T15:00:10.387Z,19.70
2018-10-06T15:02:14.115Z,19.90
2018-10-06T15:04:18.095Z,19.80
2018-10-06T15:06:21.885Z,19.70
2018-10-06T15:08:25.698Z,19.60
2018-10-06T15:10:29.535Z,19.60
2018-10-06T15:12:33.416Z,19.50
2018-10-06T15:14:37.210Z,19.60
2018-10-06T15:16:41.052Z,19.60
2018-10-06T15:18:44.833Z,19.50
2018-10-06T15:20:48.554Z,19.60
2018-10-06T15:22:52.375Z,19.40
2018-10-06T15:24:56.213Z,19.40
2018-10-06T15:27:00.042Z,19.20
2018-10-06T15:29:03.867Z,19.20
2018-10-06T15:31:08.105Z,19.20
2018-10-06T15:33:12.095Z,19.10
2018-10-06T15:35:15.892Z,19.10
2018-10-06T15:37:19.810Z,19.00
2018-10-06T15:39:23.754Z,19.00
2018-10-06T15:41:27.576Z,19.00
2018-10-06T15:43:31.366Z,19.00
2018-10-06T15:45:35.411Z,19.00
2018-10-06T15:47:39.617Z,18.90
2018-10-06T15:49:43.610Z,18.90
2018-10-06T15:51:47.592Z,19.10
2018-10-06T15:53:51.643Z,18.90
2018-10-06T15:55:55.674Z,18.90
2018-10-06T15:57:59.738Z,18.70
2018-10-06T16:00:03.618Z,18.60
2018-10-06T16:02:07.446Z,18.60
2018-10-06T16:04:11.248Z,18.70
2018-10-06T16:06:15.058Z,18.60
2018-10-06T16:08:19.212Z,18.60
2018-10-06T16:10:23.184Z,18.50
2018-10-06T16:12:27.053Z,18.50
2018-10-06T16:14:30.888Z,18.40
2018-10-06T16:16:34.726Z,18.30
2018-10-06T16:18:38.720Z,18.20
2018-10-06T16:20:42.560Z,18.20
2018-10-06T16:22:46.368Z,18.10
2018-10-06T16:24:50.162Z,18.00
2018-10-06T16:26:53.991Z,18.00
2018-10-06T16:28:57.794Z,17.90
2018-10-06T16:31:01.638Z,17.80
2018-10-06T16:33:06.892Z,17.80
2018-10-06T16:35:10.679Z,17.80
2018-10-06T16:37:14.791Z,17.70
2018-10-06T16:39:19.060Z,17.70
2018-10-06T16:41:23.012Z,17.60
2018-10-06T16:43:27.172Z,17.60
2018-10-06T16:45:31.211Z,17.60
2018-10-06T16:47:35.941Z,17.60
2018-10-06T16:49:40.362Z,17.50
2018-10-06T16:51:44.260Z,17.50
2018-10-06T16:53:48.051Z,17.50
2018-10-06T16:55:53.184Z,17.50
2018-10-06T16:57:57.314Z,17.50
2018-10-06T17:00:01.314Z,17.40
2018-10-06T17:02:06.980Z,17.30
2018-10-06T17:04:10.728Z,17.30
2018-10-06T17:06:24.987Z,17.30
2018-10-06T17:08:34.498Z,17.20
2018-10-06T17:10:38.583Z,17.20
2018-10-06T17:12:42.511Z,17.10
2018-10-06T17:14:46.394Z,17.10
2018-10-06T17:16:52.196Z,17.10
2018-10-06T17:18:56.255Z,17.00
2018-10-06T17:21:00.140Z,17.00
2018-10-06T17:23:04.018Z,17.00
2018-10-06T17:25:07.838Z,17.00
2018-10-06T17:27:11.845Z,16.90
2018-10-06T17:29:15.831Z,16.90
2018-10-06T17:31:19.806Z,16.80
2018-10-06T17:33:24.027Z,16.80
2018-10-06T17:35:27.902Z,16.70
2018-10-06T17:37:31.894Z,16.70
2018-10-06T17:39:35.909Z,16.70
2018-10-06T17:41:39.897Z,16.70
2018-10-06T17:43:43.795Z,16.70
2018-10-06T17:45:47.816Z,16.60
2018-10-06T17:47:51.637Z,16.60
2018-10-06T17:49:55.529Z,16.50
2018-10-06T17:51:59.365Z,16.50
2018-10-06T17:54:03.231Z,16.50
2018-10-06T17:56:07.062Z,16.50
2018-10-06T17:58:10.993Z,16.50
2018-10-06T18:00:14.805Z,16.50
2018-10-06T18:02:18.568Z,16.60
2018-10-06T18:04:22.458Z,16.50
2018-10-06T18:06:26.255Z,16.60
2018-10-06T18:08:30.047Z,16.70
2018-10-06T18:10:38.852Z,16.70
2018-10-06T18:12:42.708Z,16.70
2018-10-06T18:14:46.606Z,16.60
2018-10-06T18:16:50.562Z,16.50
2018-10-06T18:18:55.266Z,16.60
2018-10-06T18:20:59.138Z,16.60
2018-10-06T18:23:02.983Z,16.60
2018-10-06T18:25:06.799Z,16.60
2018-10-06T18:27:10.777Z,16.60
2018-10-06T18:29:15.119Z,16.50
2018-10-06T18:31:18.943Z,16.40
2018-10-06T18:33:22.899Z,16.40
2018-10-06T18:35:28.106Z,16.40
2018-10-06T18:37:34.382Z,16.40
2018-10-06T18:39:38.268Z,16.40
2018-10-06T18:41:42.379Z,16.40
2018-10-06T18:43:46.873Z,16.40
2018-10-06T18:45:50.918Z,16.50
2018-10-06T18:47:54.678Z,16.50
2018-10-06T18:49:58.631Z,16.50
2018-10-06T18:52:03.432Z,16.40
2018-10-06T18:54:07.407Z,16.40
2018-10-06T18:56:11.249Z,16.20
2018-10-06T18:58:15.108Z,16.10
2018-10-06T19:00:19.180Z,16.10
2018-10-06T19:02:23.220Z,16.00
2018-10-06T19:04:27.021Z,16.00
2018-10-06T19:06:31.382Z,15.90
2018-10-06T19:08:52.212Z,15.80
2018-10-06T19:10:56.040Z,15.90
2018-10-06T19:12:59.849Z,15.90
2018-10-06T19:15:03.702Z,16.00
2018-10-06T19:17:07.665Z,16.10
2018-10-06T19:19:12.195Z,16.10
2018-10-06T19:21:15.999Z,16.20
2018-10-06T19:23:19.780Z,16.20
2018-10-06T19:25:23.614Z,16.20
2018-10-06T19:27:27.480Z,16.10
2018-10-06T19:29:31.395Z,16.00
2018-10-06T19:31:35.212Z,16.00
2018-10-06T19:33:38.998Z,16.00
2018-10-06T19:35:42.830Z,15.90
2018-10-06T19:37:46.918Z,15.80
2018-10-06T19:39:51.184Z,15.80
2018-10-06T19:41:55.336Z,15.80
2018-10-06T19:43:59.547Z,15.70
2018-10-06T19:46:04.857Z,15.60
2018-10-06T19:48:09.557Z,15.60
2018-10-06T19:50:14.346Z,15.60
2018-10-06T19:52:18.259Z,15.60
2018-10-06T19:54:22.457Z,15.60
2018-10-06T19:56:27.491Z,15.60
2018-10-06T19:58:31.346Z,15.60
2018-10-06T20:00:35.276Z,15.60
2018-10-06T20:02:39.120Z,15.60
2018-10-06T20:04:42.989Z,15.60
2018-10-06T20:06:47.452Z,15.60
2018-10-06T20:08:51.264Z,15.60
2018-10-06T20:10:55.137Z,15.60
2018-10-06T20:12:58.962Z,15.60
2018-10-06T20:15:02.786Z,15.60
2018-10-06T20:17:06.679Z,15.60
2018-10-06T20:19:10.487Z,15.70
2018-10-06T20:21:14.237Z,15.80
2018-10-06T20:23:18.193Z,15.80
2018-10-06T20:25:22.190Z,15.80
2018-10-06T20:27:25.992Z,15.80
2018-10-06T20:29:29.807Z,15.90
2018-10-06T20:31:33.592Z,15.80
2018-10-06T20:33:37.440Z,15.70
2018-10-06T20:35:41.233Z,15.70
2018-10-06T20:37:45.013Z,15.70
2018-10-06T20:39:48.776Z,15.60
2018-10-06T20:41:52.849Z,15.60
2018-10-06T20:43:56.655Z,15.60
2018-10-06T20:46:00.514Z,15.50
2018-10-06T20:48:04.316Z,15.50
2018-10-06T20:50:08.341Z,15.50
2018-10-06T20:52:13.066Z,15.50
2018-10-06T20:54:16.848Z,15.50
2018-10-06T20:56:20.586Z,15.60
2018-10-06T20:58:24.369Z,15.60
2018-10-06T21:00:28.203Z,15.60
2018-10-06T21:02:32.078Z,15.60
2018-10-06T21:04:36.196Z,15.60
2018-10-06T21:06:40.136Z,15.60
2018-10-06T21:08:44.147Z,15.60
2018-10-06T21:10:48.049Z,15.70
2018-10-06T21:12:52.025Z,15.70
2018-10-06T21:14:55.893Z,15.60
2018-10-06T21:16:59.798Z,15.60
2018-10-06T21:19:03.590Z,15.60
2018-10-06T21:21:07.351Z,15.60
2018-10-06T21:23:11.092Z,15.60
2018-10-06T21:25:14.893Z,15.70
2018-10-06T21:27:18.670Z,15.70
2018-10-06T21:29:22.498Z,15.70
2018-10-06T21:31:26.357Z,15.70
2018-10-06T21:33:30.151Z,15.70
2018-10-06T21:35:33.923Z,15.70
2018-10-06T21:37:37.684Z,15.60
2018-10-06T21:39:41.501Z,15.60
2018-10-06T21:41:45.280Z,15.60
2018-10-06T21:43:49.078Z,15.70
2018-10-06T21:45:52.902Z,15.70
2018-10-06T21:47:56.636Z,15.70
2018-10-06T21:50:00.450Z,15.70
2018-10-06T21:52:04.284Z,15.70
2018-10-06T21:54:08.105Z,15.70
2018-10-06T21:56:11.847Z,15.80
2018-10-06T21:58:15.792Z,15.80
2018-10-06T22:00:19.683Z,15.70
2018-10-06T22:02:24.163Z,15.70
2018-10-06T22:04:27.943Z,15.70
2018-10-06T22:06:31.719Z,15.70
2018-10-06T22:08:35.768Z,15.70
2018-10-06T22:10:40.332Z,15.70
2018-10-06T22:12:44.352Z,15.70
2018-10-06T22:14:48.234Z,15.70
2018-10-06T22:16:52.050Z,15.70
2018-10-06T22:18:55.827Z,15.70
2018-10-06T22:20:59.575Z,15.70
2018-10-06T22:23:03.361Z,15.70
2018-10-06T22:25:07.164Z,15.70
2018-10-06T22:27:10.925Z,15.70
2018-10-06T22:29:14.754Z,15.70
2018-10-06T22:31:18.620Z,15.70
2018-10-06T22:33:22.446Z,15.70
2018-10-06T22:35:26.194Z,15.70
2018-10-06T22:37:29.975Z,15.70
2018-10-06T22:39:33.736Z,15.60
2018-10-06T22:41:37.760Z,15.60
2018-10-06T22:43:41.581Z,15.60
2018-10-06T22:45:45.296Z,15.60
2018-10-06T22:47:49.055Z,15.70
2018-10-06T22:49:52.864Z,15.60
2018-10-06T22:51:56.697Z,15.50
2018-10-06T22:54:00.444Z,15.60
2018-10-06T22:56:04.280Z,15.60
2018-10-06T22:58:08.057Z,15.60
2018-10-06T23:00:11.988Z,15.50
2018-10-06T23:02:15.724Z,15.50
2018-10-06T23:04:19.846Z,15.50
2018-10-06T23:06:23.605Z,15.50
2018-10-06T23:08:27.338Z,15.50
2018-10-06T23:10:31.092Z,15.50
2018-10-06T23:12:34.854Z,15.60
2018-10-06T23:14:38.639Z,15.50
2018-10-06T23:16:42.553Z,15.50
2018-10-06T23:18:46.324Z,15.60
2018-10-06T23:20:50.101Z,15.50
2018-10-06T23:22:53.836Z,15.50
2018-10-06T23:24:57.714Z,15.50
2018-10-06T23:27:01.555Z,15.50
2018-10-06T23:29:05.333Z,15.50
2018-10-06T23:31:09.366Z,15.50
2018-10-06T23:33:13.307Z,15.50
2018-10-06T23:35:17.095Z,15.50
2018-10-06T23:37:20.875Z,15.50
2018-10-06T23:39:24.845Z,15.40
2018-10-06T23:41:28.591Z,15.50
2018-10-06T23:43:32.315Z,15.50
2018-10-06T23:45:36.305Z,15.50
2018-10-06T23:47:40.112Z,15.50
2018-10-06T23:49:43.863Z,15.40
2018-10-06T23:51:47.625Z,15.40
2018-10-06T23:53:51.360Z,15.40
2018-10-06T23:55:55.100Z,15.40
2018-10-06T23:57:58.876Z,15.40
